sensor_id;sensor_type;location;lat;lon;timestamp;P1;durP1;ratioP1;P2;durP2;ratioP2
39502;SDS011;26970;49.900;10.774;2023-04-24T00:01:28;3.25;;;1.52;;
39502;SDS011;26970;49.900;10.774;2023-04-24T00:03:54;3.20;;;1.83;;
39502;SDS011;26970;49.900;10.774;2023-04-24T00:06:24;4.55;;;1.92;;
39502;SDS011;26970;49.900;10.774;2023-04-24T00:08:58;2.58;;;1.60;;
39502;SDS011;26970;49.900;10.774;2023-04-24T00:11:27;1.63;;;1.50;;
39502;SDS011;26970;49.900;10.774;2023-04-24T00:13:53;3.13;;;1.90;;
39502;SDS011;26970;49.900;10.774;2023-04-24T00:16:20;4.13;;;1.70;;
39502;SDS011;26970;49.900;10.774;2023-04-24T00:18:45;4.70;;;1.85;;
39502;SDS011;26970;49.900;10.774;2023-04-24T00:21:12;2.65;;;1.70;;
39502;SDS011;26970;49.900;10.774;2023-04-24T00:23:38;2.38;;;1.63;;
39502;SDS011;26970;49.900;10.774;2023-04-24T00:26:04;3.13;;;1.58;;
39502;SDS011;26970;49.900;10.774;2023-04-24T00:28:30;3.67;;;1.50;;
39502;SDS011;26970;49.900;10.774;2023-04-24T00:30:55;2.17;;;1.50;;
39502;SDS011;26970;49.900;10.774;2023-04-24T00:33:21;2.85;;;1.60;;
39502;SDS011;26970;49.900;10.774;2023-04-24T00:35:46;3.20;;;1.58;;
39502;SDS011;26970;49.900;10.774;2023-04-24T00:38:12;1.70;;;1.40;;
39502;SDS011;26970;49.900;10.774;2023-04-24T00:40:38;4.32;;;1.73;;
39502;SDS011;26970;49.900;10.774;2023-04-24T00:43:03;2.08;;;1.40;;
39502;SDS011;26970;49.900;10.774;2023-04-24T00:45:29;1.52;;;1.20;;
39502;SDS011;26970;49.900;10.774;2023-04-24T00:47:56;2.35;;;1.40;;
39502;SDS011;26970;49.900;10.774;2023-04-24T00:50:23;1.80;;;1.33;;
39502;SDS011;26970;49.900;10.774;2023-04-24T00:52:49;2.45;;;1.50;;
39502;SDS011;26970;49.900;10.774;2023-04-24T00:55:15;4.57;;;1.58;;
39502;SDS011;26970;49.900;10.774;2023-04-24T00:57:41;3.10;;;1.50;;
39502;SDS011;26970;49.900;10.774;2023-04-24T01:00:07;3.85;;;1.50;;
39502;SDS011;26970;49.900;10.774;2023-04-24T01:02:39;2.95;;;1.50;;
39502;SDS011;26970;49.900;10.774;2023-04-24T01:05:10;2.85;;;1.40;;
39502;SDS011;26970;49.900;10.774;2023-04-24T01:07:40;2.65;;;1.30;;
39502;SDS011;26970;49.900;10.774;2023-04-24T01:10:09;2.08;;;1.30;;
39502;SDS011;26970;49.900;10.774;2023-04-24T01:12:34;2.42;;;1.23;;
39502;SDS011;26970;49.900;10.774;2023-04-24T01:15:00;3.08;;;1.40;;
39502;SDS011;26970;49.900;10.774;2023-04-24T01:17:26;1.88;;;1.35;;
39502;SDS011;26970;49.900;10.774;2023-04-24T01:19:51;4.82;;;1.42;;
39502;SDS011;26970;49.900;10.774;2023-04-24T01:22:21;5.97;;;1.65;;
39502;SDS011;26970;49.900;10.774;2023-04-24T01:24:47;2.30;;;1.42;;
39502;SDS011;26970;49.900;10.774;2023-04-24T01:27:13;4.18;;;1.35;;
39502;SDS011;26970;49.900;10.774;2023-04-24T01:29:39;1.75;;;1.20;;
39502;SDS011;26970;49.900;10.774;2023-04-24T01:32:05;4.53;;;1.35;;
39502;SDS011;26970;49.900;10.774;2023-04-24T01:34:32;2.15;;;1.38;;
39502;SDS011;26970;49.900;10.774;2023-04-24T01:36:58;2.97;;;1.40;;
39502;SDS011;26970;49.900;10.774;2023-04-24T01:39:24;1.65;;;1.30;;
39502;SDS011;26970;49.900;10.774;2023-04-24T01:41:50;1.67;;;1.25;;
39502;SDS011;26970;49.900;10.774;2023-04-24T01:44:17;2.05;;;1.55;;
39502;SDS011;26970;49.900;10.774;2023-04-24T01:46:43;1.70;;;1.50;;
39502;SDS011;26970;49.900;10.774;2023-04-24T01:49:09;2.17;;;1.23;;
39502;SDS011;26970;49.900;10.774;2023-04-24T01:51:35;2.00;;;1.30;;
39502;SDS011;26970;49.900;10.774;2023-04-24T01:54:01;3.97;;;1.58;;
39502;SDS011;26970;49.900;10.774;2023-04-24T01:56:29;1.95;;;1.40;;
39502;SDS011;26970;49.900;10.774;2023-04-24T01:58:55;3.10;;;1.40;;
39502;SDS011;26970;49.900;10.774;2023-04-24T02:01:23;2.38;;;1.48;;
39502;SDS011;26970;49.900;10.774;2023-04-24T02:03:49;2.97;;;1.42;;
39502;SDS011;26970;49.900;10.774;2023-04-24T02:06:15;3.33;;;1.58;;
39502;SDS011;26970;49.900;10.774;2023-04-24T02:08:40;3.97;;;2.03;;
39502;SDS011;26970;49.900;10.774;2023-04-24T02:11:08;1.52;;;1.30;;
39502;SDS011;26970;49.900;10.774;2023-04-24T02:13:34;3.72;;;1.40;;
39502;SDS011;26970;49.900;10.774;2023-04-24T02:16:00;4.40;;;1.55;;
39502;SDS011;26970;49.900;10.774;2023-04-24T02:18:25;3.80;;;1.75;;
39502;SDS011;26970;49.900;10.774;2023-04-24T02:20:51;3.72;;;1.63;;
39502;SDS011;26970;49.900;10.774;2023-04-24T02:23:17;4.05;;;1.60;;
39502;SDS011;26970;49.900;10.774;2023-04-24T02:25:42;2.33;;;1.40;;
39502;SDS011;26970;49.900;10.774;2023-04-24T02:28:08;3.92;;;1.70;;
39502;SDS011;26970;49.900;10.774;2023-04-24T02:30:33;3.92;;;2.00;;
39502;SDS011;26970;49.900;10.774;2023-04-24T02:32:59;5.03;;;1.83;;
39502;SDS011;26970;49.900;10.774;2023-04-24T02:35:25;3.08;;;1.60;;
39502;SDS011;26970;49.900;10.774;2023-04-24T02:37:50;4.00;;;1.98;;
39502;SDS011;26970;49.900;10.774;2023-04-24T02:40:16;3.22;;;1.90;;
39502;SDS011;26970;49.900;10.774;2023-04-24T02:42:41;3.08;;;1.90;;
39502;SDS011;26970;49.900;10.774;2023-04-24T02:45:07;3.45;;;1.92;;
39502;SDS011;26970;49.900;10.774;2023-04-24T02:47:33;2.45;;;1.77;;
39502;SDS011;26970;49.900;10.774;2023-04-24T02:49:58;3.15;;;2.20;;
39502;SDS011;26970;49.900;10.774;2023-04-24T02:52:24;2.42;;;1.75;;
39502;SDS011;26970;49.900;10.774;2023-04-24T02:54:50;2.92;;;1.95;;
39502;SDS011;26970;49.900;10.774;2023-04-24T02:57:15;4.15;;;1.83;;
39502;SDS011;26970;49.900;10.774;2023-04-24T02:59:41;9.45;;;2.08;;
39502;SDS011;26970;49.900;10.774;2023-04-24T03:02:06;3.70;;;2.20;;
39502;SDS011;26970;49.900;10.774;2023-04-24T03:04:32;2.65;;;1.98;;
39502;SDS011;26970;49.900;10.774;2023-04-24T03:06:57;5.28;;;2.20;;
39502;SDS011;26970;49.900;10.774;2023-04-24T03:09:23;4.50;;;2.20;;
39502;SDS011;26970;49.900;10.774;2023-04-24T03:11:49;4.75;;;2.22;;
39502;SDS011;26970;49.900;10.774;2023-04-24T03:14:15;5.65;;;2.00;;
39502;SDS011;26970;49.900;10.774;2023-04-24T03:16:41;3.75;;;2.30;;
39502;SDS011;26970;49.900;10.774;2023-04-24T03:19:06;3.45;;;1.80;;
39502;SDS011;26970;49.900;10.774;2023-04-24T03:21:32;3.05;;;2.10;;
39502;SDS011;26970;49.900;10.774;2023-04-24T03:23:58;4.90;;;2.00;;
39502;SDS011;26970;49.900;10.774;2023-04-24T03:26:23;3.67;;;1.98;;
39502;SDS011;26970;49.900;10.774;2023-04-24T03:28:49;4.63;;;1.98;;
39502;SDS011;26970;49.900;10.774;2023-04-24T03:31:15;5.53;;;2.30;;
39502;SDS011;26970;49.900;10.774;2023-04-24T03:33:41;3.10;;;2.08;;
39502;SDS011;26970;49.900;10.774;2023-04-24T03:36:07;3.25;;;2.10;;
39502;SDS011;26970;49.900;10.774;2023-04-24T03:38:33;7.50;;;2.25;;
39502;SDS011;26970;49.900;10.774;2023-04-24T03:40:58;3.53;;;2.00;;
39502;SDS011;26970;49.900;10.774;2023-04-24T03:43:24;2.80;;;2.10;;
39502;SDS011;26970;49.900;10.774;2023-04-24T03:45:49;2.88;;;1.92;;
39502;SDS011;26970;49.900;10.774;2023-04-24T03:48:15;3.33;;;1.98;;
39502;SDS011;26970;49.900;10.774;2023-04-24T03:50:41;3.55;;;1.90;;
39502;SDS011;26970;49.900;10.774;2023-04-24T03:53:06;4.93;;;2.22;;
39502;SDS011;26970;49.900;10.774;2023-04-24T03:55:33;8.65;;;2.75;;
39502;SDS011;26970;49.900;10.774;2023-04-24T03:57:58;4.22;;;2.25;;
39502;SDS011;26970;49.900;10.774;2023-04-24T04:00:24;5.07;;;2.22;;
39502;SDS011;26970;49.900;10.774;2023-04-24T04:02:50;4.38;;;1.63;;
39502;SDS011;26970;49.900;10.774;2023-04-24T04:05:16;3.70;;;2.00;;
39502;SDS011;26970;49.900;10.774;2023-04-24T04:07:42;4.28;;;2.00;;
39502;SDS011;26970;49.900;10.774;2023-04-24T04:10:07;5.18;;;2.03;;
39502;SDS011;26970;49.900;10.774;2023-04-24T04:12:33;5.50;;;1.90;;
39502;SDS011;26970;49.900;10.774;2023-04-24T04:14:58;3.28;;;1.95;;
39502;SDS011;26970;49.900;10.774;2023-04-24T04:17:24;4.30;;;2.03;;
39502;SDS011;26970;49.900;10.774;2023-04-24T04:19:50;3.35;;;1.67;;
39502;SDS011;26970;49.900;10.774;2023-04-24T04:22:15;4.13;;;1.70;;
39502;SDS011;26970;49.900;10.774;2023-04-24T04:24:41;3.33;;;2.30;;
39502;SDS011;26970;49.900;10.774;2023-04-24T04:27:06;4.20;;;2.08;;
39502;SDS011;26970;49.900;10.774;2023-04-24T04:29:33;6.90;;;1.70;;
39502;SDS011;26970;49.900;10.774;2023-04-24T04:31:59;2.50;;;1.70;;
39502;SDS011;26970;49.900;10.774;2023-04-24T04:34:26;2.60;;;1.67;;
39502;SDS011;26970;49.900;10.774;2023-04-24T04:36:51;7.03;;;1.77;;
39502;SDS011;26970;49.900;10.774;2023-04-24T04:39:17;3.20;;;2.00;;
39502;SDS011;26970;49.900;10.774;2023-04-24T04:41:43;5.10;;;2.10;;
39502;SDS011;26970;49.900;10.774;2023-04-24T04:44:11;3.50;;;1.92;;
39502;SDS011;26970;49.900;10.774;2023-04-24T04:46:37;3.75;;;1.70;;
39502;SDS011;26970;49.900;10.774;2023-04-24T04:49:03;3.67;;;1.75;;
39502;SDS011;26970;49.900;10.774;2023-04-24T04:51:29;2.20;;;1.67;;
39502;SDS011;26970;49.900;10.774;2023-04-24T04:53:56;2.83;;;1.70;;
39502;SDS011;26970;49.900;10.774;2023-04-24T04:56:21;3.75;;;1.65;;
39502;SDS011;26970;49.900;10.774;2023-04-24T04:58:47;4.80;;;1.75;;
39502;SDS011;26970;49.900;10.774;2023-04-24T05:01:12;3.67;;;1.65;;
39502;SDS011;26970;49.900;10.774;2023-04-24T05:03:38;2.47;;;1.58;;
39502;SDS011;26970;49.900;10.774;2023-04-24T05:06:04;3.28;;;1.90;;
39502;SDS011;26970;49.900;10.774;2023-04-24T05:08:30;1.77;;;1.50;;
39502;SDS011;26970;49.900;10.774;2023-04-24T05:10:56;3.85;;;1.58;;
39502;SDS011;26970;49.900;10.774;2023-04-24T05:13:22;5.22;;;1.40;;
39502;SDS011;26970;49.900;10.774;2023-04-24T05:15:47;4.60;;;1.92;;
39502;SDS011;26970;49.900;10.774;2023-04-24T05:18:13;3.75;;;1.60;;
39502;SDS011;26970;49.900;10.774;2023-04-24T05:20:38;2.83;;;2.35;;
39502;SDS011;26970;49.900;10.774;2023-04-24T05:23:04;6.07;;;1.95;;
39502;SDS011;26970;49.900;10.774;2023-04-24T05:25:29;4.43;;;1.70;;
39502;SDS011;26970;49.900;10.774;2023-04-24T05:28:00;3.40;;;1.60;;
39502;SDS011;26970;49.900;10.774;2023-04-24T05:30:25;2.40;;;1.70;;
39502;SDS011;26970;49.900;10.774;2023-04-24T05:32:51;6.32;;;2.45;;
39502;SDS011;26970;49.900;10.774;2023-04-24T05:35:17;2.97;;;1.70;;
39502;SDS011;26970;49.900;10.774;2023-04-24T05:37:43;2.42;;;1.77;;
39502;SDS011;26970;49.900;10.774;2023-04-24T05:40:09;4.57;;;1.65;;
39502;SDS011;26970;49.900;10.774;2023-04-24T05:42:35;5.32;;;1.98;;
39502;SDS011;26970;49.900;10.774;2023-04-24T05:45:01;3.25;;;1.70;;
39502;SDS011;26970;49.900;10.774;2023-04-24T05:47:26;4.43;;;1.63;;
39502;SDS011;26970;49.900;10.774;2023-04-24T05:49:52;4.85;;;1.77;;
39502;SDS011;26970;49.900;10.774;2023-04-24T05:52:18;3.83;;;1.60;;
39502;SDS011;26970;49.900;10.774;2023-04-24T05:54:43;3.05;;;1.50;;
39502;SDS011;26970;49.900;10.774;2023-04-24T05:57:09;3.38;;;1.65;;
39502;SDS011;26970;49.900;10.774;2023-04-24T05:59:36;3.38;;;1.70;;
39502;SDS011;26970;49.900;10.774;2023-04-24T06:02:03;2.42;;;1.70;;
39502;SDS011;26970;49.900;10.774;2023-04-24T06:04:29;1.88;;;1.50;;
39502;SDS011;26970;49.900;10.774;2023-04-24T06:06:54;6.32;;;2.20;;
39502;SDS011;26970;49.900;10.774;2023-04-24T06:09:24;4.10;;;2.67;;
39502;SDS011;26970;49.900;10.774;2023-04-24T06:11:50;3.40;;;1.65;;
39502;SDS011;26970;49.900;10.774;2023-04-24T06:14:18;2.83;;;1.33;;
39502;SDS011;26970;49.900;10.774;2023-04-24T06:16:44;1.80;;;1.23;;
39502;SDS011;26970;49.900;10.774;2023-04-24T06:19:09;2.80;;;1.42;;
39502;SDS011;26970;49.900;10.774;2023-04-24T06:21:35;1.70;;;1.30;;
39502;SDS011;26970;49.900;10.774;2023-04-24T06:24:00;1.83;;;1.20;;
39502;SDS011;26970;49.900;10.774;2023-04-24T06:26:26;1.60;;;1.10;;
39502;SDS011;26970;49.900;10.774;2023-04-24T06:28:52;2.13;;;1.35;;
39502;SDS011;26970;49.900;10.774;2023-04-24T06:31:23;4.90;;;1.23;;
39502;SDS011;26970;49.900;10.774;2023-04-24T06:33:49;2.90;;;1.15;;
39502;SDS011;26970;49.900;10.774;2023-04-24T06:36:14;6.53;;;1.98;;
39502;SDS011;26970;49.900;10.774;2023-04-24T06:38:40;3.10;;;1.55;;
39502;SDS011;26970;49.900;10.774;2023-04-24T06:41:06;1.55;;;1.30;;
39502;SDS011;26970;49.900;10.774;2023-04-24T06:43:32;1.40;;;1.30;;
39502;SDS011;26970;49.900;10.774;2023-04-24T06:45:58;1.88;;;1.30;;
39502;SDS011;26970;49.900;10.774;2023-04-24T06:48:25;2.60;;;1.23;;
39502;SDS011;26970;49.900;10.774;2023-04-24T06:50:51;1.95;;;1.40;;
39502;SDS011;26970;49.900;10.774;2023-04-24T06:53:17;1.48;;;1.25;;
39502;SDS011;26970;49.900;10.774;2023-04-24T06:55:42;2.83;;;1.60;;
39502;SDS011;26970;49.900;10.774;2023-04-24T06:58:10;1.77;;;1.33;;
39502;SDS011;26970;49.900;10.774;2023-04-24T07:00:35;3.08;;;1.50;;
39502;SDS011;26970;49.900;10.774;2023-04-24T07:03:01;2.33;;;1.58;;
39502;SDS011;26970;49.900;10.774;2023-04-24T07:05:28;4.15;;;1.70;;
39502;SDS011;26970;49.900;10.774;2023-04-24T07:07:54;2.83;;;1.48;;
39502;SDS011;26970;49.900;10.774;2023-04-24T07:10:19;3.83;;;1.67;;
39502;SDS011;26970;49.900;10.774;2023-04-24T07:12:45;4.68;;;1.63;;
39502;SDS011;26970;49.900;10.774;2023-04-24T07:15:12;2.67;;;1.70;;
39502;SDS011;26970;49.900;10.774;2023-04-24T07:17:37;2.88;;;1.60;;
39502;SDS011;26970;49.900;10.774;2023-04-24T07:20:03;2.00;;;1.55;;
39502;SDS011;26970;49.900;10.774;2023-04-24T07:22:30;3.90;;;2.10;;
39502;SDS011;26970;49.900;10.774;2023-04-24T07:24:56;2.85;;;1.90;;
39502;SDS011;26970;49.900;10.774;2023-04-24T07:27:21;2.55;;;1.80;;
39502;SDS011;26970;49.900;10.774;2023-04-24T07:29:47;2.75;;;1.85;;
39502;SDS011;26970;49.900;10.774;2023-04-24T07:32:13;4.40;;;1.70;;
39502;SDS011;26970;49.900;10.774;2023-04-24T07:34:38;3.35;;;1.77;;
39502;SDS011;26970;49.900;10.774;2023-04-24T07:37:04;3.10;;;1.88;;
39502;SDS011;26970;49.900;10.774;2023-04-24T07:39:30;2.47;;;1.77;;
39502;SDS011;26970;49.900;10.774;2023-04-24T07:41:56;4.07;;;1.80;;
39502;SDS011;26970;49.900;10.774;2023-04-24T07:44:21;2.90;;;1.80;;
39502;SDS011;26970;49.900;10.774;2023-04-24T07:46:47;3.40;;;1.60;;
39502;SDS011;26970;49.900;10.774;2023-04-24T07:49:13;3.05;;;1.75;;
39502;SDS011;26970;49.900;10.774;2023-04-24T07:51:39;2.35;;;1.73;;
39502;SDS011;26970;49.900;10.774;2023-04-24T07:54:05;9.00;;;2.90;;
39502;SDS011;26970;49.900;10.774;2023-04-24T07:56:33;2.83;;;1.75;;
39502;SDS011;26970;49.900;10.774;2023-04-24T07:58:59;3.30;;;1.60;;
39502;SDS011;26970;49.900;10.774;2023-04-24T08:01:26;3.20;;;2.00;;
39502;SDS011;26970;49.900;10.774;2023-04-24T08:03:52;3.53;;;1.65;;
39502;SDS011;26970;49.900;10.774;2023-04-24T08:06:17;2.72;;;1.80;;
39502;SDS011;26970;49.900;10.774;2023-04-24T08:08:43;4.07;;;2.13;;
39502;SDS011;26970;49.900;10.774;2023-04-24T08:11:09;4.18;;;1.83;;
39502;SDS011;26970;49.900;10.774;2023-04-24T08:13:35;2.67;;;1.95;;
39502;SDS011;26970;49.900;10.774;2023-04-24T08:16:00;2.40;;;1.70;;
39502;SDS011;26970;49.900;10.774;2023-04-24T08:18:26;3.25;;;2.35;;
39502;SDS011;26970;49.900;10.774;2023-04-24T08:20:52;2.50;;;2.00;;
39502;SDS011;26970;49.900;10.774;2023-04-24T08:23:18;4.13;;;2.25;;
39502;SDS011;26970;49.900;10.774;2023-04-24T08:25:43;2.92;;;1.88;;
39502;SDS011;26970;49.900;10.774;2023-04-24T08:28:09;4.35;;;2.17;;
39502;SDS011;26970;49.900;10.774;2023-04-24T08:30:35;2.97;;;2.25;;
39502;SDS011;26970;49.900;10.774;2023-04-24T08:33:01;4.15;;;2.60;;
39502;SDS011;26970;49.900;10.774;2023-04-24T08:35:27;5.75;;;2.30;;
39502;SDS011;26970;49.900;10.774;2023-04-24T08:37:53;3.15;;;2.20;;
39502;SDS011;26970;49.900;10.774;2023-04-24T08:40:18;5.15;;;2.90;;
39502;SDS011;26970;49.900;10.774;2023-04-24T08:42:50;2.40;;;1.85;;
39502;SDS011;26970;49.900;10.774;2023-04-24T08:45:21;3.63;;;1.80;;
39502;SDS011;26970;49.900;10.774;2023-04-24T08:47:47;2.90;;;1.88;;
39502;SDS011;26970;49.900;10.774;2023-04-24T08:50:14;5.50;;;2.13;;
39502;SDS011;26970;49.900;10.774;2023-04-24T08:52:41;4.88;;;2.38;;
39502;SDS011;26970;49.900;10.774;2023-04-24T08:55:07;4.80;;;1.90;;
39502;SDS011;26970;49.900;10.774;2023-04-24T08:57:34;4.20;;;2.00;;
39502;SDS011;26970;49.900;10.774;2023-04-24T09:00:01;3.70;;;2.30;;
39502;SDS011;26970;49.900;10.774;2023-04-24T09:02:27;2.80;;;1.67;;
39502;SDS011;26970;49.900;10.774;2023-04-24T09:04:54;2.80;;;1.90;;
39502;SDS011;26970;49.900;10.774;2023-04-24T09:07:22;5.53;;;2.03;;
39502;SDS011;26970;49.900;10.774;2023-04-24T09:09:50;3.42;;;2.30;;
39502;SDS011;26970;49.900;10.774;2023-04-24T09:12:16;2.80;;;1.70;;
39502;SDS011;26970;49.900;10.774;2023-04-24T09:14:42;3.20;;;1.90;;
39502;SDS011;26970;49.900;10.774;2023-04-24T09:17:10;3.45;;;2.50;;
39502;SDS011;26970;49.900;10.774;2023-04-24T09:19:36;3.85;;;2.22;;
39502;SDS011;26970;49.900;10.774;2023-04-24T09:22:05;3.47;;;1.80;;
39502;SDS011;26970;49.900;10.774;2023-04-24T09:24:31;3.75;;;2.30;;
39502;SDS011;26970;49.900;10.774;2023-04-24T09:26:58;3.30;;;2.35;;
39502;SDS011;26970;49.900;10.774;2023-04-24T09:29:26;4.07;;;2.10;;
39502;SDS011;26970;49.900;10.774;2023-04-24T09:31:52;5.13;;;2.40;;
39502;SDS011;26970;49.900;10.774;2023-04-24T09:34:25;3.15;;;2.10;;
39502;SDS011;26970;49.900;10.774;2023-04-24T09:36:52;6.45;;;2.60;;
39502;SDS011;26970;49.900;10.774;2023-04-24T09:39:18;4.03;;;2.33;;
39502;SDS011;26970;49.900;10.774;2023-04-24T09:44:13;3.60;;;2.33;;
39502;SDS011;26970;49.900;10.774;2023-04-24T09:46:49;4.18;;;2.30;;
39502;SDS011;26970;49.900;10.774;2023-04-24T09:49:26;4.10;;;1.80;;
39502;SDS011;26970;49.900;10.774;2023-04-24T09:52:09;3.97;;;2.15;;
39502;SDS011;26970;49.900;10.774;2023-04-24T09:54:36;5.22;;;2.22;;
39502;SDS011;26970;49.900;10.774;2023-04-24T09:57:02;3.95;;;2.40;;
39502;SDS011;26970;49.900;10.774;2023-04-24T09:59:29;3.67;;;2.05;;
39502;SDS011;26970;49.900;10.774;2023-04-24T10:01:54;3.45;;;2.05;;
39502;SDS011;26970;49.900;10.774;2023-04-24T10:04:22;2.00;;;1.65;;
39502;SDS011;26970;49.900;10.774;2023-04-24T10:06:49;8.05;;;3.05;;
39502;SDS011;26970;49.900;10.774;2023-04-24T10:09:19;3.58;;;1.35;;
39502;SDS011;26970;49.900;10.774;2023-04-24T10:11:47;1.40;;;1.25;;
39502;SDS011;26970;49.900;10.774;2023-04-24T10:14:14;2.63;;;1.60;;
39502;SDS011;26970;49.900;10.774;2023-04-24T10:16:41;1.10;;;1.00;;
39502;SDS011;26970;49.900;10.774;2023-04-24T10:19:09;1.58;;;1.30;;
39502;SDS011;26970;49.900;10.774;2023-04-24T10:21:37;1.85;;;1.25;;
39502;SDS011;26970;49.900;10.774;2023-04-24T10:24:07;1.45;;;1.20;;
39502;SDS011;26970;49.900;10.774;2023-04-24T10:26:36;1.50;;;1.15;;
39502;SDS011;26970;49.900;10.774;2023-04-24T10:29:05;1.45;;;1.20;;
39502;SDS011;26970;49.900;10.774;2023-04-24T10:31:35;2.65;;;1.60;;
39502;SDS011;26970;49.900;10.774;2023-04-24T10:34:02;2.45;;;1.60;;
39502;SDS011;26970;49.900;10.774;2023-04-24T10:36:29;1.52;;;1.23;;
39502;SDS011;26970;49.900;10.774;2023-04-24T10:38:57;3.35;;;1.40;;
39502;SDS011;26970;49.900;10.774;2023-04-24T10:41:26;2.10;;;1.52;;
39502;SDS011;26970;49.900;10.774;2023-04-24T10:44:04;2.47;;;1.60;;
39502;SDS011;26970;49.900;10.774;2023-04-24T10:46:34;2.60;;;1.50;;
39502;SDS011;26970;49.900;10.774;2023-04-24T10:49:03;2.53;;;1.70;;
39502;SDS011;26970;49.900;10.774;2023-04-24T10:59:48;2.50;;;1.77;;
39502;SDS011;26970;49.900;10.774;2023-04-24T11:02:15;3.30;;;1.80;;
39502;SDS011;26970;49.900;10.774;2023-04-24T11:04:42;2.67;;;1.75;;
39502;SDS011;26970;49.900;10.774;2023-04-24T11:07:08;2.03;;;1.70;;
39502;SDS011;26970;49.900;10.774;2023-04-24T11:09:35;3.72;;;1.95;;
39502;SDS011;26970;49.900;10.774;2023-04-24T11:12:08;3.30;;;1.90;;
39502;SDS011;26970;49.900;10.774;2023-04-24T11:20:09;3.22;;;2.20;;
39502;SDS011;26970;49.900;10.774;2023-04-24T11:22:37;4.03;;;2.17;;
39502;SDS011;26970;49.900;10.774;2023-04-24T11:25:05;3.10;;;2.22;;
39502;SDS011;26970;49.900;10.774;2023-04-24T11:27:33;2.63;;;2.05;;
39502;SDS011;26970;49.900;10.774;2023-04-24T11:30:07;3.63;;;2.05;;
39502;SDS011;26970;49.900;10.774;2023-04-24T11:35:15;2.38;;;2.10;;
39502;SDS011;26970;49.900;10.774;2023-04-24T11:37:53;3.92;;;2.20;;
39502;SDS011;26970;49.900;10.774;2023-04-24T11:40:19;5.93;;;2.38;;
39502;SDS011;26970;49.900;10.774;2023-04-24T11:42:48;2.53;;;2.00;;
39502;SDS011;26970;49.900;10.774;2023-04-24T11:45:17;3.00;;;2.05;;
39502;SDS011;26970;49.900;10.774;2023-04-24T11:47:44;5.95;;;2.25;;
39502;SDS011;26970;49.900;10.774;2023-04-24T11:50:11;3.53;;;2.15;;
39502;SDS011;26970;49.900;10.774;2023-04-24T11:52:39;4.03;;;2.17;;
39502;SDS011;26970;49.900;10.774;2023-04-24T11:55:22;2.58;;;1.70;;
39502;SDS011;26970;49.900;10.774;2023-04-24T11:57:54;9.55;;;2.85;;
39502;SDS011;26970;49.900;10.774;2023-04-24T12:00:22;3.83;;;1.83;;
39502;SDS011;26970;49.900;10.774;2023-04-24T12:02:50;5.05;;;1.95;;
39502;SDS011;26970;49.900;10.774;2023-04-24T12:05:26;2.47;;;1.85;;
39502;SDS011;26970;49.900;10.774;2023-04-24T12:07:52;3.90;;;2.00;;
39502;SDS011;26970;49.900;10.774;2023-04-24T12:10:21;3.38;;;2.03;;
39502;SDS011;26970;49.900;10.774;2023-04-24T12:12:52;4.43;;;2.28;;
39502;SDS011;26970;49.900;10.774;2023-04-24T12:15:21;2.97;;;2.00;;
39502;SDS011;26970;49.900;10.774;2023-04-24T12:17:48;4.22;;;2.20;;
39502;SDS011;26970;49.900;10.774;2023-04-24T12:20:16;5.85;;;2.22;;
39502;SDS011;26970;49.900;10.774;2023-04-24T12:22:42;4.13;;;2.33;;
39502;SDS011;26970;49.900;10.774;2023-04-24T12:25:12;4.85;;;2.40;;
39502;SDS011;26970;49.900;10.774;2023-04-24T12:27:38;2.95;;;2.00;;
39502;SDS011;26970;49.900;10.774;2023-04-24T12:30:05;3.85;;;2.30;;
39502;SDS011;26970;49.900;10.774;2023-04-24T12:32:43;4.85;;;2.40;;
39502;SDS011;26970;49.900;10.774;2023-04-24T12:35:13;3.85;;;2.33;;
39502;SDS011;26970;49.900;10.774;2023-04-24T12:37:50;3.90;;;2.20;;
39502;SDS011;26970;49.900;10.774;2023-04-24T12:40:16;3.10;;;2.05;;
39502;SDS011;26970;49.900;10.774;2023-04-24T12:42:43;4.38;;;2.00;;
39502;SDS011;26970;49.900;10.774;2023-04-24T12:45:10;4.95;;;2.47;;
39502;SDS011;26970;49.900;10.774;2023-04-24T12:47:39;2.55;;;1.85;;
39502;SDS011;26970;49.900;10.774;2023-04-24T12:50:09;3.88;;;2.20;;
39502;SDS011;26970;49.900;10.774;2023-04-24T12:52:37;4.93;;;2.50;;
39502;SDS011;26970;49.900;10.774;2023-04-24T12:55:04;7.68;;;2.30;;
39502;SDS011;26970;49.900;10.774;2023-04-24T12:57:32;4.18;;;2.10;;
39502;SDS011;26970;49.900;10.774;2023-04-24T12:59:59;10.25;;;2.97;;
39502;SDS011;26970;49.900;10.774;2023-04-24T13:02:27;12.98;;;2.60;;
39502;SDS011;26970;49.900;10.774;2023-04-24T13:04:54;2.28;;;1.80;;
39502;SDS011;26970;49.900;10.774;2023-04-24T13:07:20;3.60;;;2.20;;
39502;SDS011;26970;49.900;10.774;2023-04-24T13:09:47;5.70;;;2.38;;
39502;SDS011;26970;49.900;10.774;2023-04-24T13:12:14;7.47;;;1.88;;
39502;SDS011;26970;49.900;10.774;2023-04-24T13:14:40;7.75;;;2.40;;
39502;SDS011;26970;49.900;10.774;2023-04-24T13:17:05;3.28;;;1.90;;
39502;SDS011;26970;49.900;10.774;2023-04-24T13:19:39;2.22;;;1.73;;
39502;SDS011;26970;49.900;10.774;2023-04-24T13:22:06;4.93;;;1.80;;
39502;SDS011;26970;49.900;10.774;2023-04-24T13:24:32;3.83;;;1.77;;
39502;SDS011;26970;49.900;10.774;2023-04-24T13:26:58;2.47;;;1.58;;
39502;SDS011;26970;49.900;10.774;2023-04-24T13:29:24;2.60;;;1.83;;
39502;SDS011;26970;49.900;10.774;2023-04-24T13:31:51;3.20;;;1.85;;
39502;SDS011;26970;49.900;10.774;2023-04-24T13:34:19;3.63;;;1.38;;
39502;SDS011;26970;49.900;10.774;2023-04-24T13:36:45;2.15;;;1.60;;
39502;SDS011;26970;49.900;10.774;2023-04-24T13:39:11;2.08;;;1.50;;
39502;SDS011;26970;49.900;10.774;2023-04-24T13:41:37;4.00;;;1.70;;
39502;SDS011;26970;49.900;10.774;2023-04-24T13:44:03;4.85;;;1.70;;
39502;SDS011;26970;49.900;10.774;2023-04-24T13:46:30;2.20;;;1.63;;
39502;SDS011;26970;49.900;10.774;2023-04-24T13:48:55;3.20;;;2.03;;
39502;SDS011;26970;49.900;10.774;2023-04-24T13:51:22;2.92;;;2.03;;
39502;SDS011;26970;49.900;10.774;2023-04-24T13:53:48;3.20;;;2.25;;
39502;SDS011;26970;49.900;10.774;2023-04-24T13:56:13;5.78;;;1.90;;
39502;SDS011;26970;49.900;10.774;2023-04-24T13:58:39;2.97;;;2.30;;
39502;SDS011;26970;49.900;10.774;2023-04-24T14:01:05;4.63;;;2.35;;
39502;SDS011;26970;49.900;10.774;2023-04-24T14:03:31;3.42;;;2.40;;
39502;SDS011;26970;49.900;10.774;2023-04-24T14:05:58;3.53;;;2.20;;
39502;SDS011;26970;49.900;10.774;2023-04-24T14:08:23;4.68;;;2.42;;
39502;SDS011;26970;49.900;10.774;2023-04-24T14:10:50;3.50;;;2.55;;
39502;SDS011;26970;49.900;10.774;2023-04-24T14:13:15;5.22;;;2.25;;
39502;SDS011;26970;49.900;10.774;2023-04-24T14:15:41;5.57;;;2.58;;
39502;SDS011;26970;49.900;10.774;2023-04-24T14:18:07;4.25;;;2.50;;
39502;SDS011;26970;49.900;10.774;2023-04-24T14:20:32;4.57;;;2.53;;
39502;SDS011;26970;49.900;10.774;2023-04-24T14:22:58;4.10;;;2.55;;
39502;SDS011;26970;49.900;10.774;2023-04-24T14:25:24;3.65;;;2.40;;
39502;SDS011;26970;49.900;10.774;2023-04-24T14:27:50;3.40;;;2.60;;
39502;SDS011;26970;49.900;10.774;2023-04-24T14:30:16;3.85;;;2.58;;
39502;SDS011;26970;49.900;10.774;2023-04-24T14:32:42;5.78;;;3.25;;
39502;SDS011;26970;49.900;10.774;2023-04-24T14:35:07;4.32;;;2.97;;
39502;SDS011;26970;49.900;10.774;2023-04-24T14:37:33;4.55;;;3.20;;
39502;SDS011;26970;49.900;10.774;2023-04-24T14:39:59;5.18;;;3.15;;
39502;SDS011;26970;49.900;10.774;2023-04-24T14:42:24;7.10;;;3.10;;
39502;SDS011;26970;49.900;10.774;2023-04-24T14:44:50;4.30;;;3.08;;
39502;SDS011;26970;49.900;10.774;2023-04-24T14:47:16;4.35;;;3.13;;
39502;SDS011;26970;49.900;10.774;2023-04-24T14:49:46;5.28;;;3.45;;